Time;durP1;ratioP1;P1;durP2;ratioP2;P2;SDS_P1;SDS_P2;PMS_P1;PMS_P2;Temp;Humidity;BMP_temperature;BMP_pressure;BME280_temperature;BME280_humidity;BME280_pressure;Samples;Min_cycle;Max_cycle;Signal;HPM_P1;HPM_P2
2021/01/02 00:01:13;;;;;;;;;;;;;;;2.84;100.00;97626.88;4957804;28;19918;-85
2021/01/02 00:03:42;;;;;;;;;;;;;;;2.82;100.00;97632.50;4974757;28;19914;-88
2021/01/02 00:06:08;;;;;;;;;;;;;;;2.82;100.00;97639.81;4975079;28;19914;-87
2021/01/02 00:08:34;;;;;;;;;;;;;;;2.94;100.00;97641.31;4974883;28;19914;-89
2021/01/02 00:11:19;;;;;;;;;;;;;;;2.90;100.00;97645.56;4975360;28;20012;-89
2021/01/02 00:14:03;;;;;;;;;;;;;;;2.90;100.00;97648.28;4991075;28;19929;-89
2021/01/02 00:16:47;;;;;;;;;;;;;;;2.95;100.00;97652.91;4976214;28;19925;-89
2021/01/02 00:19:16;;;;;;;;;;;;;;;2.86;100.00;97644.44;4975950;28;19914;-87
2021/01/02 00:22:00;;;;;;;;;;;;;;;2.95;100.00;97651.00;4975321;28;19925;-85
2021/01/02 00:24:35;;;;;;;;;;;;;;;2.93;100.00;97669.38;4974717;28;19949;-85
2021/01/02 00:27:04;;;;;;;;;;;;;;;2.90;100.00;97685.25;4974880;28;20437;-85
2021/01/02 00:29:36;;;;;;;;;;;;;;;2.90;100.00;97687.97;4957282;28;19918;-81
2021/01/02 00:32:19;;;;;;;;;;;;;;;2.99;100.00;97686.44;4990028;28;20371;-91
2021/01/02 00:34:56;;;;;;;;;;;;;;;3.05;100.00;97686.25;4957694;28;19925;-85
2021/01/02 00:37:40;;;;;;;;;;;;;;;3.08;100.00;97684.91;4973846;28;19917;-81
2021/01/02 00:40:06;;;;;;;;;;;;;;;3.18;100.00;97682.31;4973963;28;19918;-84
2021/01/02 00:42:32;;;;;;;;;;;;;;;3.15;100.00;97674.72;4993513;28;19936;-83
2021/01/02 00:45:01;;;;;;;;;;;;;;;3.15;100.00;97674.72;4982407;28;20260;-83
2021/01/02 00:47:27;;;;;;;;;;;;;;;3.10;100.00;97664.69;4956895;28;19983;-88
2021/01/02 00:49:56;;;;;;;;;;;;;;;3.12;100.00;97667.97;4955404;28;20034;-85
2021/01/02 00:52:24;;;;;;;;;;;;;;;3.10;100.00;97664.69;4972972;28;19914;-86
2021/01/02 00:54:54;;;;;;;;;;;;;;;3.06;100.00;97674.38;4974848;28;19914;-80
2021/01/02 00:57:49;;;;;;;;;;;;;;;3.03;100.00;97674.88;4973344;28;19921;-86
2021/01/02 01:00:16;;;;;;;;;;;;;;;2.99;100.00;97662.13;4944279;28;19996;-84
2021/01/02 01:02:57;;;;;;;;;;;;;;;3.01;100.00;97655.41;4961227;28;19918;-89
2021/01/02 01:05:23;;;;;;;;;;;;;;;3.00;100.00;97653.78;4956920;28;20334;-88
2021/01/02 01:07:55;;;;;;;;;;;;;;;3.01;100.00;97657.28;4979066;28;19911;-85
2021/01/02 01:10:22;;;;;;;;;;;;;;;3.03;100.00;97661.38;4972953;28;19918;-80
2021/01/02 01:12:53;;;;;;;;;;;;;;;3.01;100.00;97671.59;4972545;28;19918;-85
2021/01/02 01:15:18;;;;;;;;;;;;;;;3.04;100.00;97665.69;4957320;28;19961;-89
2021/01/02 01:17:52;;;;;;;;;;;;;;;3.02;100.00;97673.25;4976041;28;19922;-89
2021/01/02 01:20:20;;;;;;;;;;;;;;;3.08;100.00;97676.81;4958410;28;19914;-89
2021/01/02 01:22:54;;;;;;;;;;;;;;;3.06;100.00;97678.97;4973376;28;19931;-86
2021/01/02 01:25:31;;;;;;;;;;;;;;;3.08;100.00;97685.75;4957196;28;19937;-90
2021/01/02 01:28:03;;;;;;;;;;;;;;;3.17;100.00;97695.03;4974064;28;19918;-85
2021/01/02 01:30:35;;;;;;;;;;;;;;;3.08;100.00;97701.94;4974484;28;19964;-91
2021/01/02 01:33:02;;;;;;;;;;;;;;;3.09;100.00;97691.97;4958531;28;19960;-88
2021/01/02 01:35:28;;;;;;;;;;;;;;;3.11;100.00;97704.13;4958615;28;20008;-91
2021/01/02 01:37:56;;;;;;;;;;;;;;;3.33;100.00;97711.38;4958305;28;20016;-86
2021/01/02 01:40:25;;;;;;;;;;;;;;;3.35;100.00;97707.38;4975213;28;20004;-86
2021/01/02 01:43:01;;;;;;;;;;;;;;;3.40;100.00;97717.41;4957205;28;20294;-87
2021/01/02 01:45:38;;;;;;;;;;;;;;;3.28;100.00;97711.34;4975885;28;19937;-90
2021/01/02 01:48:09;;;;;;;;;;;;;;;3.23;100.00;97707.50;4959802;28;20283;-88
2021/01/02 01:50:55;;;;;;;;;;;;;;;3.20;100.00;97705.31;4959632;28;20005;-86
2021/01/02 01:53:32;;;;;;;;;;;;;;;3.14;100.00;97700.94;4977657;28;19969;-88
2021/01/02 01:56:02;;;;;;;;;;;;;;;3.18;100.00;97706.66;4977984;28;20005;-87
2021/01/02 01:58:37;;;;;;;;;;;;;;;3.13;100.00;97710.09;4983105;28;19914;-90
2021/01/02 02:01:03;;;;;;;;;;;;;;;3.08;100.00;97706.53;4965629;28;19925;-90
2021/01/02 02:03:33;;;;;;;;;;;;;;;3.10;100.00;97697.09;4979886;28;19917;-88
2021/01/02 02:06:07;;;;;;;;;;;;;;;3.15;100.00;97702.56;4976287;28;20005;-86
2021/01/02 02:08:43;;;;;;;;;;;;;;;3.19;100.00;97694.78;4958069;28;20401;-88
2021/01/02 02:11:18;;;;;;;;;;;;;;;3.11;100.00;97695.22;4974487;28;19921;-88
2021/01/02 02:13:48;;;;;;;;;;;;;;;3.18;100.00;97696.66;4958091;28;19922;-87
2021/01/02 02:16:19;;;;;;;;;;;;;;;3.17;100.00;97694.19;4957597;28;19922;-89
2021/01/02 02:18:45;;;;;;;;;;;;;;;3.19;100.00;97690.19;4974846;28;19929;-87
2021/01/02 02:21:11;;;;;;;;;;;;;;;3.25;100.00;97691.06;4957464;28;19976;-89
2021/01/02 02:23:56;;;;;;;;;;;;;;;3.13;100.00;97693.88;4957970;28;20414;-88
2021/01/02 02:26:42;;;;;;;;;;;;;;;3.13;100.00;97688.47;4957278;28;19914;-90
2021/01/02 02:29:13;;;;;;;;;;;;;;;3.11;100.00;97679.81;4973859;28;19914;-90
2021/01/02 02:31:45;;;;;;;;;;;;;;;3.13;100.00;97683.06;4973945;28;20347;-89
2021/01/02 02:34:12;;;;;;;;;;;;;;;3.07;100.00;97676.00;4974310;28;20013;-86
2021/01/02 02:36:37;;;;;;;;;;;;;;;3.07;100.00;97676.00;4973826;28;19914;-90
2021/01/02 02:39:07;;;;;;;;;;;;;;;3.03;100.00;97665.97;4958493;28;19941;-87
2021/01/02 02:41:36;;;;;;;;;;;;;;;3.10;100.00;97672.78;4975434;28;19914;-88
2021/01/02 02:44:02;;;;;;;;;;;;;;;3.15;100.00;97670.16;4975200;28;19941;-88
2021/01/02 02:46:28;;;;;;;;;;;;;;;3.11;100.00;97673.59;4974728;28;19949;-88
2021/01/02 02:48:56;;;;;;;;;;;;;;;3.10;100.00;97680.88;4975195;28;19981;-87
2021/01/02 02:51:23;;;;;;;;;;;;;;;3.10;100.00;97680.09;4960107;28;19957;-87
2021/01/02 02:53:49;;;;;;;;;;;;;;;3.10;100.00;97678.19;4976522;28;19920;-88
2021/01/02 02:56:14;;;;;;;;;;;;;;;3.08;100.00;97684.91;4957687;28;19914;-92
2021/01/02 02:58:39;;;;;;;;;;;;;;;3.17;100.00;97683.38;4986121;28;19968;-89
2021/01/02 03:01:05;;;;;;;;;;;;;;;3.18;100.00;97677.75;4992472;28;19922;-88
2021/01/02 03:03:30;;;;;;;;;;;;;;;3.06;100.00;97681.66;4974626;28;19917;-90
2021/01/02 03:05:56;;;;;;;;;;;;;;;2.97;100.00;97666.97;4976065;28;19922;-89
2021/01/02 03:08:22;;;;;;;;;;;;;;;2.99;100.00;97665.66;4976273;28;19918;-88
2021/01/02 03:10:47;;;;;;;;;;;;;;;3.05;100.00;97667.34;4975272;28;19914;-89
2021/01/02 03:13:13;;;;;;;;;;;;;;;3.14;100.00;97670.38;4993498;28;19928;-86
2021/01/02 03:15:39;;;;;;;;;;;;;;;3.13;100.00;97669.56;4993497;28;19933;-88
2021/01/02 03:18:04;;;;;;;;;;;;;;;3.21;100.00;97677.22;4996874;28;19921;-86
2021/01/02 03:20:30;;;;;;;;;;;;;;;3.21;100.00;97685.34;4995813;28;19914;-88
2021/01/02 03:22:55;;;;;;;;;;;;;;;3.21;100.00;97687.22;4978394;28;20024;-87
2021/01/02 03:25:20;;;;;;;;;;;;;;;3.14;100.00;97676.63;4978199;28;19913;-90
2021/01/02 03:27:46;;;;;;;;;;;;;;;3.08;100.00;97663.31;4995848;28;19968;-87
2021/01/02 03:30:12;;;;;;;;;;;;;;;3.14;100.00;97665.81;4995740;28;19932;-87
2021/01/02 03:32:38;;;;;;;;;;;;;;;3.05;100.00;97663.81;4978530;28;20025;-89
2021/01/02 03:35:05;;;;;;;;;;;;;;;2.96;100.00;97665.34;4983701;28;19914;-91
2021/01/02 03:37:30;;;;;;;;;;;;;;;2.93;100.00;97661.28;4977791;28;20402;-86
2021/01/02 03:39:55;;;;;;;;;;;;;;;2.87;100.00;97667.69;4959152;28;19961;-90
2021/01/02 03:42:21;;;;;;;;;;;;;;;2.91;100.00;97674.22;4975221;28;20378;-90
2021/01/02 03:44:46;;;;;;;;;;;;;;;3.05;100.00;97682.72;4977215;28;19960;-89
2021/01/02 03:47:11;;;;;;;;;;;;;;;3.07;100.00;97684.09;4958414;28;19914;-88
2021/01/02 03:49:37;;;;;;;;;;;;;;;3.07;100.00;97694.13;4958786;28;19910;-89
2021/01/02 03:52:06;;;;;;;;;;;;;;;3.09;100.00;97706.28;4976137;28;20375;-84
2021/01/02 03:54:32;;;;;;;;;;;;;;;3.16;100.00;97703.41;4976413;28;20045;-86
2021/01/02 03:56:57;;;;;;;;;;;;;;;3.15;100.00;97710.69;4975011;28;20385;-90
2021/01/02 03:59:22;;;;;;;;;;;;;;;3.13;100.00;97710.09;4975942;28;20297;-87
2021/01/02 04:01:51;;;;;;;;;;;;;;;3.10;100.00;97702.50;4974280;28;19906;-87
2021/01/02 04:04:17;;;;;;;;;;;;;;;3.04;100.00;97706.22;4975570;28;19919;-86
2021/01/02 04:06:42;;;;;;;;;;;;;;;3.08;100.00;97709.22;4975962;28;20379;-86
2021/01/02 04:09:07;;;;;;;;;;;;;;;3.11;100.00;97711.44;4958118;28;19914;-90
2021/01/02 04:11:38;;;;;;;;;;;;;;;3.20;100.00;97720.72;4992808;28;19935;-88
2021/01/02 04:14:03;;;;;;;;;;;;;;;3.22;100.00;97711.31;4995294;28;19921;-88
2021/01/02 04:16:31;;;;;;;;;;;;;;;3.22;100.00;97727.50;4978200;28;19914;-89
2021/01/02 04:18:56;;;;;;;;;;;;;;;3.24;100.00;97728.06;4995963;28;19918;-89
2021/01/02 04:21:21;;;;;;;;;;;;;;;3.24;100.00;97725.38;4995844;28;19913;-85
2021/01/02 04:23:47;;;;;;;;;;;;;;;3.10;100.00;97726.81;4977731;28;19914;-90
2021/01/02 04:26:17;;;;;;;;;;;;;;;3.03;100.00;97720.81;4994499;28;20291;-91
2021/01/02 04:28:42;;;;;;;;;;;;;;;2.89;100.00;97716.84;4994969;28;19918;-91
2021/01/02 04:31:08;;;;;;;;;;;;;;;2.85;100.00;97710.31;4977977;28;19917;-88
2021/01/02 04:33:33;;;;;;;;;;;;;;;2.74;100.00;97692.38;4977910;28;20237;-86
2021/01/02 04:35:58;;;;;;;;;;;;;;;2.72;100.00;97664.00;4972517;28;19921;-83
2021/01/02 04:38:23;;;;;;;;;;;;;;;2.69;100.00;97646.44;4979745;28;20413;-85
2021/01/02 04:40:54;;;;;;;;;;;;;;;2.74;100.00;97657.28;4992155;28;19934;-87
2021/01/02 04:43:19;;;;;;;;;;;;;;;2.75;100.00;97664.31;4997750;28;19918;-84
2021/01/02 04:45:45;;;;;;;;;;;;;;;2.74;100.00;97672.66;4981357;28;20386;-85
2021/01/02 04:48:10;;;;;;;;;;;;;;;2.80;100.00;97679.75;5000227;28;19918;-85
2021/01/02 04:50:35;;;;;;;;;;;;;;;2.80;100.00;97682.44;4979074;28;19906;-89
2021/01/02 04:53:04;;;;;;;;;;;;;;;2.81;100.00;97676.81;4979075;28;19914;-87
2021/01/02 04:55:31;;;;;;;;;;;;;;;2.77;100.00;97669.44;4995919;28;19914;-86
2021/01/02 04:57:57;;;;;;;;;;;;;;;2.86;100.00;97666.03;4995380;28;19921;-85
2021/01/02 05:00:25;;;;;;;;;;;;;;;2.74;100.00;97667.25;4998671;28;19922;-89
2021/01/02 05:02:51;;;;;;;;;;;;;;;2.67;100.00;97683.63;4983623;28;20382;-90
2021/01/02 05:05:18;;;;;;;;;;;;;;;2.76;100.00;97711.03;4981760;28;19914;-91
2021/01/02 05:07:43;;;;;;;;;;;;;;;2.77;100.00;97702.66;4981764;28;19968;-84
2021/01/02 05:10:09;;;;;;;;;;;;;;;2.76;100.00;97703.72;4999466;28;19918;-87
2021/01/02 05:12:34;;;;;;;;;;;;;;;2.77;100.00;97705.38;4979013;28;20420;-90
2021/01/02 05:15:11;;;;;;;;;;;;;;;2.79;100.00;97705.13;4980394;28;19917;-90
2021/01/02 05:17:37;;;;;;;;;;;;;;;2.76;100.00;97709.13;4980414;28;19932;-83
2021/01/02 05:20:03;;;;;;;;;;;;;;;2.79;100.00;97703.22;5000136;28;19964;-85
2021/01/02 05:22:28;;;;;;;;;;;;;;;2.75;100.00;97712.91;4983984;28;19913;-84
2021/01/02 05:25:12;;;;;;;;;;;;;;;2.79;100.00;97707.84;4984463;28;20306;-88
2021/01/02 05:27:39;;;;;;;;;;;;;;;2.77;100.00;97708.06;5001978;28;20049;-87
2021/01/02 05:30:13;;;;;;;;;;;;;;;2.80;100.00;97709.44;5004443;28;19914;-89
2021/01/02 05:32:56;;;;;;;;;;;;;;;2.81;100.00;97703.81;4981977;28;19914;-88
2021/01/02 05:35:23;;;;;;;;;;;;;;;2.77;100.00;97699.97;4978761;28;19917;-86
2021/01/02 05:37:48;;;;;;;;;;;;;;;2.77;100.00;97716.16;4995454;28;19913;-91
2021/01/02 05:40:30;;;;;;;;;;;;;;;2.76;100.00;97709.13;4995726;28;19917;-87
2021/01/02 05:42:56;;;;;;;;;;;;;;;2.74;100.00;97705.06;4995180;28;19981;-88
2021/01/02 05:45:22;;;;;;;;;;;;;;;2.72;100.00;97699.91;4995415;28;19953;-83
2021/01/02 05:47:47;;;;;;;;;;;;;;;2.66;100.00;97698.22;4995694;28;20343;-87
2021/01/02 05:50:19;;;;;;;;;;;;;;;2.69;100.00;97693.13;4994781;28;19920;-87
2021/01/02 05:52:48;;;;;;;;;;;;;;;2.68;100.00;97690.69;4977027;28;19917;-84
2021/01/02 05:55:27;;;;;;;;;;;;;;;2.62;100.00;97686.28;4976863;28;19965;-85
2021/01/02 05:57:52;;;;;;;;;;;;;;;2.58;100.00;97693.25;4993344;28;19921;-83
2021/01/02 06:00:19;;;;;;;;;;;;;;;2.58;100.00;97696.75;4992820;28;19918;-86
2021/01/02 06:02:44;;;;;;;;;;;;;;;2.64;100.00;97690.38;4978094;28;19925;-87
2021/01/02 06:05:10;;;;;;;;;;;;;;;2.70;100.00;97683.13;4994523;28;19913;-86
2021/01/02 06:07:36;;;;;;;;;;;;;;;2.74;100.00;97681.56;4994008;28;20000;-85
2021/01/02 06:10:03;;;;;;;;;;;;;;;2.67;100.00;97680.94;4976029;28;19913;-86
2021/01/02 06:12:33;;;;;;;;;;;;;;;2.75;100.00;97679.69;4992830;28;19921;-89
2021/01/02 06:15:00;;;;;;;;;;;;;;;2.58;100.00;97680.56;4993895;28;19913;-89
2021/01/02 06:17:26;;;;;;;;;;;;;;;2.60;100.00;97686.53;4993377;28;19917;-88
2021/01/02 06:19:52;;;;;;;;;;;;;;;2.65;100.00;97694.69;4976375;28;19913;-88
2021/01/02 06:22:18;;;;;;;;;;;;;;;2.62;100.00;97694.38;4976403;28;19906;-86
2021/01/02 06:24:52;;;;;;;;;;;;;;;2.65;100.00;97696.59;4993387;28;20379;-85
2021/01/02 06:27:17;;;;;;;;;;;;;;;2.62;100.00;97691.69;4976318;28;19914;-86
2021/01/02 06:29:56;;;;;;;;;;;;;;;2.65;100.00;97691.19;4975588;28;19940;-88
2021/01/02 06:32:22;;;;;;;;;;;;;;;2.80;100.00;97687.84;4975818;28;20430;-85
2021/01/02 06:35:06;;;;;;;;;;;;;;;2.73;100.00;97701.53;4993735;28;20077;-87
2021/01/02 06:37:47;;;;;;;;;;;;;;;2.76;100.00;97698.31;4993033;28;19918;-88
2021/01/02 06:40:21;;;;;;;;;;;;;;;2.73;100.00;97709.63;4993228;28;19917;-90
2021/01/02 06:42:53;;;;;;;;;;;;;;;2.67;100.00;97716.03;4976678;28;19917;-84
2021/01/02 06:45:44;;;;;;;;;;;;;;;2.70;100.00;97715.53;4993700;28;19913;-88
2021/01/02 06:48:13;;;;;;;;;;;;;;;2.66;100.00;97709.81;4989301;28;20400;-89
2021/01/02 06:50:38;;;;;;;;;;;;;;;2.60;100.00;97726.22;4977515;28;19917;-92
2021/01/02 06:53:19;;;;;;;;;;;;;;;2.62;100.00;97707.88;4997366;28;20418;-88
2021/01/02 06:55:47;;;;;;;;;;;;;;;2.62;100.00;97691.69;4981503;28;20282;-90
2021/01/02 06:58:19;;;;;;;;;;;;;;;2.59;100.00;97682.22;4964384;28;19918;-89
2021/01/02 07:00:44;;;;;;;;;;;;;;;2.65;100.00;97696.59;4980153;28;20378;-90
2021/01/02 07:03:29;;;;;;;;;;;;;;;2.78;100.00;97692.69;4996883;28;19914;-84
2021/01/02 07:05:55;;;;;;;;;;;;;;;2.72;100.00;97691.81;4979100;28;19913;-84
2021/01/02 07:08:39;;;;;;;;;;;;;;;2.76;100.00;97700.22;4978746;28;19913;-90
2021/01/02 07:11:23;;;;;;;;;;;;;;;2.81;100.00;97690.31;4996129;28;19921;-90
2021/01/02 07:13:48;;;;;;;;;;;;;;;2.80;100.00;97693.25;4979402;28;19918;-87
2021/01/02 07:16:30;;;;;;;;;;;;;;;2.73;100.00;97688.03;4978600;28;19964;-85
2021/01/02 07:18:55;;;;;;;;;;;;;;;2.83;100.00;97692.75;4978625;28;19914;-89
2021/01/02 07:21:31;;;;;;;;;;;;;;;2.81;100.00;97695.69;4978614;28;19936;-85
2021/01/02 07:23:56;;;;;;;;;;;;;;;2.78;100.00;97685.41;4978089;28;19917;-88
2021/01/02 07:26:26;;;;;;;;;;;;;;;2.77;100.00;97699.97;4978673;28;19920;-84
2021/01/02 07:28:52;;;;;;;;;;;;;;;2.66;100.00;97693.63;4979215;28;19920;-91
2021/01/02 07:31:17;;;;;;;;;;;;;;;2.70;100.00;97688.53;4997629;28;19925;-91
2021/01/02 07:33:43;;;;;;;;;;;;;;;2.70;100.00;97705.56;4997139;28;19918;-88
2021/01/02 07:36:18;;;;;;;;;;;;;;;2.72;100.00;97698.00;4979870;28;19937;-91
2021/01/02 07:38:43;;;;;;;;;;;;;;;2.68;100.00;97693.38;4981229;28;20004;-85
2021/01/02 07:41:09;;;;;;;;;;;;;;;2.57;100.00;97699.69;4982087;28;19941;-86
2021/01/02 07:43:35;;;;;;;;;;;;;;;2.53;100.00;97698.59;4996775;28;19922;-82
2021/01/02 07:46:02;;;;;;;;;;;;;;;2.62;100.00;97703.31;4979972;28;19967;-78
2021/01/02 07:48:27;;;;;;;;;;;;;;;2.67;100.00;97699.84;4992721;28;19917;-82
2021/01/02 07:50:52;;;;;;;;;;;;;;;2.76;100.00;97690.22;4994530;28;20329;-79
2021/01/02 07:53:17;;;;;;;;;;;;;;;2.81;100.00;97679.50;4973275;28;19921;-78
2021/01/02 07:55:43;;;;;;;;;;;;;;;2.68;100.00;97677.19;4974584;28;20399;-76
2021/01/02 07:58:08;;;;;;;;;;;;;;;2.78;100.00;97679.19;4957149;28;19925;-79
2021/01/02 08:00:33;;;;;;;;;;;;;;;2.80;100.00;97679.75;4973100;28;19933;-85
2021/01/02 08:03:03;;;;;;;;;;;;;;;2.83;100.00;97684.63;4961738;28;19981;-77
2021/01/02 08:05:28;;;;;;;;;;;;;;;2.82;100.00;97683.81;4976219;28;19929;-81
2021/01/02 08:07:57;;;;;;;;;;;;;;;2.81;100.00;97684.91;4993391;28;20310;-78
2021/01/02 08:10:23;;;;;;;;;;;;;;;2.83;100.00;97688.16;4993701;28;20334;-82
2021/01/02 08:12:50;;;;;;;;;;;;;;;2.77;100.00;97678.38;4993930;28;19925;-83
2021/01/02 08:15:25;;;;;;;;;;;;;;;2.75;100.00;97685.91;4993857;28;20295;-82
2021/01/02 08:17:50;;;;;;;;;;;;;;;2.92;100.00;97692.03;4994105;28;19928;-83
2021/01/02 08:20:19;;;;;;;;;;;;;;;2.91;100.00;97705.81;4976637;28;20028;-80
2021/01/02 08:22:44;;;;;;;;;;;;;;;2.77;100.00;97693.75;4992864;28;19921;-82
2021/01/02 08:25:10;;;;;;;;;;;;;;;2.84;100.00;97689.78;4993324;28;20381;-78
2021/01/02 08:27:36;;;;;;;;;;;;;;;2.87;100.00;97689.28;4976034;28;19922;-81
2021/01/02 08:30:07;;;;;;;;;;;;;;;2.92;100.00;97685.81;4993281;28;19971;-76
2021/01/02 08:32:34;;;;;;;;;;;;;;;3.18;100.00;97696.66;4975811;28;19918;-79
2021/01/02 08:34:59;;;;;;;;;;;;;;;3.19;100.00;97709.09;4993413;28;20378;-76
2021/01/02 08:37:25;;;;;;;;;;;;;;;3.06;100.00;97714.09;4993010;28;19926;-83
2021/01/02 08:40:10;;;;;;;;;;;;;;;3.36;100.00;97719.81;4993279;28;19989;-79
2021/01/02 08:42:39;;;;;;;;;;;;;;;3.13;100.00;97737.13;4993456;28;19914;-78
2021/01/02 08:45:06;;;;;;;;;;;;;;;3.20;100.00;97726.09;4993686;28;19918;-79
2021/01/02 08:47:31;;;;;;;;;;;;;;;3.12;100.00;97724.69;4993218;28;19918;-76
2021/01/02 08:50:06;;;;;;;;;;;;;;;3.74;100.00;97727.75;4992948;28;19913;-83
2021/01/02 08:52:35;;;;;;;;;;;;;;;4.31;98.51;97733.34;4993508;28;20394;-77
2021/01/02 08:55:09;;;;;;;;;;;;;;;4.65;96.29;97732.97;4975531;28;19921;-78
2021/01/02 08:57:46;;;;;;;;;;;;;;;4.02;96.15;97726.63;4993435;28;19917;-76
2021/01/02 09:00:13;;;;;;;;;;;;;;;3.81;97.63;97732.94;4992478;28;20432;-78
2021/01/02 09:02:40;;;;;;;;;;;;;;;3.34;100.00;97723.84;4992461;28;20068;-77
2021/01/02 09:05:12;;;;;;;;;;;;;;;3.83;100.00;97725.38;4992460;28;19914;-76
2021/01/02 09:07:38;;;;;;;;;;;;;;;4.21;98.21;97740.56;4993028;28;19920;-84
2021/01/02 09:10:13;;;;;;;;;;;;;;;3.56;98.50;97743.53;4993557;28;19913;-87
2021/01/02 09:12:38;;;;;;;;;;;;;;;4.50;94.73;97749.97;4996949;28;19918;-87
2021/01/02 09:15:04;;;;;;;;;;;;;;;4.54;95.69;97752.97;4990030;28;19944;-91
2021/01/02 09:17:29;;;;;;;;;;;;;;;4.73;92.07;97746.03;4988991;28;19914;-83
2021/01/02 09:19:54;;;;;;;;;;;;;;;4.07;95.71;97740.16;4987664;28;19960;-83
2021/01/02 09:22:25;;;;;;;;;;;;;;;3.63;98.29;97730.63;4993330;28;19913;-89
2021/01/02 09:25:09;;;;;;;;;;;;;;;3.51;99.47;97733.47;4996567;28;20369;-90
2021/01/02 09:27:41;;;;;;;;;;;;;;;3.61;99.55;97727.34;4979498;28;19929;-89
2021/01/02 09:30:07;;;;;;;;;;;;;;;3.68;100.00;97731.47;4986382;28;19914;-86
2021/01/02 09:32:32;;;;;;;;;;;;;;;3.45;99.69;97718.25;4978116;28;19964;-87
2021/01/02 09:34:57;;;;;;;;;;;;;;;3.43;100.00;97709.59;4988063;28;19957;-91
2021/01/02 09:37:22;;;;;;;;;;;;;;;3.43;100.00;97716.91;4989882;28;19921;-87
2021/01/02 09:40:06;;;;;;;;;;;;;;;3.40;100.00;97715.53;4998048;28;19925;-90
2021/01/02 09:42:32;;;;;;;;;;;;;;;3.65;100.00;97718.47;4996831;28;19924;-91
2021/01/02 09:45:00;;;;;;;;;;;;;;;3.63;100.00;97703.59;4995580;28;19918;-86
2021/01/02 09:47:25;;;;;;;;;;;;;;;3.54;100.00;97688.91;4994159;28;19981;-91
2021/01/02 09:49:50;;;;;;;;;;;;;;;3.72;100.00;97683.09;5000208;28;19921;-88
2021/01/02 09:52:16;;;;;;;;;;;;;;;3.64;100.00;97692.50;4983651;28;19913;-85
2021/01/02 10:00:29;;;;;;;;;;;;;;;3.68;100.00;97722.53;4987114;28;19936;-77
2021/01/02 10:02:54;;;;;;;;;;;;;;;3.76;100.00;97713.94;4962472;28;20389;-79
2021/01/02 10:05:57;;;;;;;;;;;;;;;3.76;100.00;97716.66;4981810;28;19914;-78
2021/01/02 10:08:29;;;;;;;;;;;;;;;3.77;100.00;97719.13;4982253;28;19941;-78
2021/01/02 10:11:27;;;;;;;;;;;;;;;3.73;100.00;97719.88;4983089;28;19973;-77
2021/01/02 10:14:05;;;;;;;;;;;;;;;3.53;100.00;97704.31;4980141;28;19941;-77
2021/01/02 10:16:31;;;;;;;;;;;;;;;3.49;100.00;97691.53;4981444;28;19999;-85
2021/01/02 10:19:30;;;;;;;;;;;;;;;3.44;100.00;97686.09;4983079;28;19953;-81
2021/01/02 10:24:52;;;;;;;;;;;;;;;3.41;100.00;97687.44;4981599;28;19917;-82
2021/01/02 10:27:45;;;;;;;;;;;;;;;3.33;100.00;97681.66;4985541;28;19924;-86
2021/01/02 10:30:17;;;;;;;;;;;;;;;3.49;100.00;97678.03;4964117;28;19949;-83
2021/01/02 10:32:51;;;;;;;;;;;;;;;3.52;100.00;97674.81;4986726;28;19921;-90
2021/01/02 10:35:17;;;;;;;;;;;;;;;3.47;100.00;97661.25;4987852;28;20396;-78
2021/01/02 10:37:42;;;;;;;;;;;;;;;3.50;100.00;97661.56;4984968;28;19961;-80
2021/01/02 10:40:08;;;;;;;;;;;;;;;3.48;100.00;97649.34;4983604;28;19914;-75
2021/01/02 10:42:35;;;;;;;;;;;;;;;3.62;100.00;97643.28;4967286;28;19922;-77
2021/01/02 10:45:01;;;;;;;;;;;;;;;3.72;100.00;97629.00;4985835;28;19914;-86
2021/01/02 10:47:27;;;;;;;;;;;;;;;3.99;100.00;97640.56;4975811;28;19918;-77
2021/01/02 10:49:53;;;;;;;;;;;;;;;3.93;100.00;97633.47;4989569;28;19961;-83
2021/01/02 10:52:19;;;;;;;;;;;;;;;3.76;100.00;97638.22;4975235;28;20007;-83
2021/01/02 10:54:45;;;;;;;;;;;;;;;3.84;100.00;97640.47;4977788;28;19975;-80
2021/01/02 10:57:10;;;;;;;;;;;;;;;3.73;100.00;97623.34;4988931;28;19925;-87
2021/01/02 10:59:36;;;;;;;;;;;;;;;3.80;100.00;97615.00;4976772;28;20325;-81
2021/01/02 11:02:01;;;;;;;;;;;;;;;3.78;100.00;97600.94;4993837;28;19918;-81
2021/01/02 11:04:29;;;;;;;;;;;;;;;3.74;100.00;97603.34;4994300;28;20319;-78
2021/01/02 11:06:55;;;;;;;;;;;;;;;3.69;99.78;97597.91;4974248;28;19922;-76
2021/01/02 11:09:22;;;;;;;;;;;;;;;3.67;99.61;97577.59;4987934;28;19965;-84
2021/01/02 11:11:47;;;;;;;;;;;;;;;3.65;99.84;97574.34;4981260;28;19914;-79
2021/01/02 11:14:13;;;;;;;;;;;;;;;3.59;100.00;97565.38;4983551;28;19928;-78
2021/01/02 11:16:42;;;;;;;;;;;;;;;3.66;100.00;97559.75;4982615;28;19992;-86
2021/01/02 11:19:11;;;;;;;;;;;;;;;3.63;100.00;97541.34;4981133;28;20375;-78
2021/01/02 11:21:36;;;;;;;;;;;;;;;3.72;100.00;97543.28;4981685;28;19940;-81
2021/01/02 11:24:01;;;;;;;;;;;;;;;3.75;100.00;97550.88;4989027;28;20536;-88
2021/01/02 11:26:26;;;;;;;;;;;;;;;3.63;100.00;97542.13;5004881;28;19918;-86
2021/01/02 11:28:52;;;;;;;;;;;;;;;3.67;100.00;97526.19;4998228;28;19922;-87
2021/01/02 11:31:18;;;;;;;;;;;;;;;3.66;100.00;97514.59;4995515;28;19933;-90
2021/01/02 11:33:43;;;;;;;;;;;;;;;3.66;100.00;97513.78;4967759;28;20016;-75
2021/01/02 11:36:10;;;;;;;;;;;;;;;3.78;100.00;97522.50;4989309;28;19953;-80
2021/01/02 11:38:36;;;;;;;;;;;;;;;3.78;100.00;97533.31;4977264;28;19918;-76
2021/01/02 11:41:01;;;;;;;;;;;;;;;3.83;99.50;97535.22;4979538;28;20377;-76
2021/01/02 11:43:26;;;;;;;;;;;;;;;3.71;99.92;97527.31;4978238;28;19914;-78
2021/01/02 11:45:51;;;;;;;;;;;;;;;3.74;100.00;97518.69;4980054;28;19985;-75
2021/01/02 11:48:17;;;;;;;;;;;;;;;3.80;99.33;97525.75;4985204;28;20536;-77
2021/01/02 11:50:42;;;;;;;;;;;;;;;3.67;99.25;97515.38;4981484;28;19910;-79
2021/01/02 11:53:11;;;;;;;;;;;;;;;3.60;98.99;97514.81;4980901;28;19918;-75
2021/01/02 11:55:37;;;;;;;;;;;;;;;3.60;99.33;97509.41;4992561;28;19914;-73
2021/01/02 11:58:02;;;;;;;;;;;;;;;3.61;98.94;97502.91;4993126;28;20329;-84
2021/01/02 12:00:30;;;;;;;;;;;;;;;3.62;98.86;97491.84;4975023;28;19952;-84
2021/01/02 12:02:55;;;;;;;;;;;;;;;3.89;98.89;97502.53;4970876;28;19922;-78
2021/01/02 12:05:22;;;;;;;;;;;;;;;3.92;98.42;97504.69;4984198;28;20979;-80
2021/01/02 12:07:48;;;;;;;;;;;;;;;3.90;98.73;97503.34;4973351;28;19925;-80
2021/01/02 12:10:13;;;;;;;;;;;;;;;3.87;98.93;97498.47;4973346;28;19910;-84
2021/01/02 12:12:38;;;;;;;;;;;;;;;4.04;98.50;97493.69;4973600;28;19922;-82
2021/01/02 12:15:04;;;;;;;;;;;;;;;4.05;98.02;97487.16;4973866;28;19973;-88
2021/01/02 12:17:30;;;;;;;;;;;;;;;3.91;97.59;97489.56;4973606;28;20295;-84
2021/01/02 12:19:55;;;;;;;;;;;;;;;3.86;98.86;97486.81;4973372;28;19924;-81
2021/01/02 12:22:21;;;;;;;;;;;;;;;3.93;99.44;97497.41;4970971;28;19916;-83
2021/01/02 12:24:47;;;;;;;;;;;;;;;3.87;99.27;97491.16;4993624;28;19917;-87
2021/01/02 12:27:12;;;;;;;;;;;;;;;3.76;99.61;97497.59;4990089;28;20013;-88
2021/01/02 12:29:38;;;;;;;;;;;;;;;3.72;99.44;97494.63;4959334;28;20367;-82
2021/01/02 12:32:08;;;;;;;;;;;;;;;3.77;99.83;97500.03;4992262;28;19996;-82
2021/01/02 12:34:35;;;;;;;;;;;;;;;3.84;99.55;97496.28;4992425;28;19960;-78
2021/01/02 12:37:02;;;;;;;;;;;;;;;3.77;99.59;97500.03;4992516;28;20337;-78
2021/01/02 12:39:29;;;;;;;;;;;;;;;3.74;100.00;97499.75;4992278;28;19914;-84
2021/01/02 12:41:55;;;;;;;;;;;;;;;3.77;100.00;97499.22;4988839;28;19914;-84
2021/01/02 12:44:23;;;;;;;;;;;;;;;3.68;100.00;97496.22;4959004;28;19917;-90
2021/01/02 12:46:50;;;;;;;;;;;;;;;3.65;100.00;97495.91;4986068;28;19925;-87
2021/01/02 12:49:16;;;;;;;;;;;;;;;3.65;100.00;97474.28;4983190;28;19914;-87
2021/01/02 12:51:42;;;;;;;;;;;;;;;3.68;100.00;97471.88;4980009;28;19921;-81
2021/01/02 12:54:10;;;;;;;;;;;;;;;3.62;100.00;97470.22;4983296;28;20520;-87
2021/01/02 12:56:42;;;;;;;;;;;;;;;3.78;100.00;97466.53;4985199;28;19918;-91
2021/01/02 12:59:07;;;;;;;;;;;;;;;3.77;100.00;97442.44;4976854;28;19917;-86
2021/01/02 13:01:40;;;;;;;;;;;;;;;3.83;100.00;97443.25;4983999;28;19948;-88
2021/01/02 13:04:06;;;;;;;;;;;;;;;3.95;100.00;97450.06;4995966;28;20005;-91
2021/01/02 13:06:31;;;;;;;;;;;;;;;3.96;100.00;97437.34;4994915;28;20375;-92